Overview Statistics Trail Chart Weather Telemetry Raw packets
 

This is the latest recevied weather packets stored in our database for station/object W1RCP. If no packets are shown the sender has not sent any weather packets the latest 10 day(s).

<< 109 110 111 112 113 114 >>
Time Temp. Humidity Pressure Rain* Wind** Luminosity Snow
1787786749 29.44° C 79% 1025.5 hPa 0 mm - 64 W/m² -
1787786444 28.89° C 77% 1025.6 hPa 0 mm - 75 W/m² -
1787786139 29.44° C 77% 1025.4 hPa 0 mm - 85 W/m² -
1787785835 29.44° C 77% 1025.6 hPa 0 mm - 97 W/m² -
1787785531 29.44° C 76% 1025.6 hPa 0 mm - 112 W/m² -
1787785230 30° C 74% 1025.4 hPa 0 mm - 123 W/m² -
1787784925 30° C 75% 1025.7 hPa 0 mm - 125 W/m² -
1787784624 30° C 75% 1025.5 hPa 0 mm - 148 W/m² -
1787784323 30° C 73% 1025.7 hPa 0 mm - 153 W/m² -
1787784018 29.44° C 74% 1026 hPa 0 mm - 176 W/m² -
1787783715 28.89° C 80% 1025.8 hPa 0 mm - 190 W/m² -
1787783414 28.33° C 79% 1025.9 hPa 0 mm - 206 W/m² -
1787783110 27.78° C 82% 1025.7 hPa 0 mm - 212 W/m² -
1787782809 27.22° C 84% 1025.7 hPa 0 mm - 111 W/m² -
1787782505 27.22° C 84% 1025.7 hPa 0 mm - 83 W/m² -
1787782205 27.22° C 84% 1025.7 hPa 0 mm - 80 W/m² -
1787781901 27.22° C 81% 1025.8 hPa 0 mm - 83 W/m² -
1787781599 27.78° C 82% 1025.8 hPa 0 mm - 87 W/m² -
1787781298 27.78° C 81% 1025.9 hPa 0 mm - 93 W/m² -
1787780996 28.33° C 81% 1026.2 hPa 0 mm - 104 W/m² -
1787780691 29.44° C 77% 1025.8 hPa 0 mm - 117 W/m² -
1787780385 30° C 70% 1025.8 hPa 0 mm - 155 W/m² -
1787780083 30° C 71% 1025.8 hPa 0 mm - 212 W/m² -
1787779783 29.44° C 71% 1025.9 hPa 0 mm - 420 W/m² -
1787779486 29.44° C 73% 1025.9 hPa 0 mm - 397 W/m² -

* Rain latest hour (hover to see other rain measurements)
** Current wind speed in m/s (hover to see current wind gust speed)